createdAt,value
2023-05-17T00:01:02.172Z,12.08
2023-05-17T00:03:29.885Z,12.04
2023-05-17T00:05:57.552Z,12.04
2023-05-17T00:08:26.700Z,12.02
2023-05-17T00:10:54.414Z,12.01
2023-05-17T00:13:22.302Z,11.98
2023-05-17T00:15:50.025Z,11.98
2023-05-17T00:18:17.882Z,11.97
2023-05-17T00:20:45.677Z,11.91
2023-05-17T00:23:13.428Z,11.88
2023-05-17T00:25:42.560Z,11.85
2023-05-17T00:28:10.311Z,11.78
2023-05-17T00:30:38.031Z,11.72
2023-05-17T00:33:05.778Z,11.67
2023-05-17T00:35:33.504Z,11.69
2023-05-17T00:38:01.541Z,11.68
2023-05-17T00:40:29.303Z,11.67
2023-05-17T00:42:58.445Z,11.64
2023-05-17T00:45:26.354Z,11.66
2023-05-17T00:47:54.205Z,11.66
2023-05-17T00:50:22.222Z,11.63
2023-05-17T00:52:50.061Z,11.62
2023-05-17T00:55:19.689Z,11.61
2023-05-17T00:57:47.533Z,11.65
2023-05-17T01:00:17.086Z,11.64
2023-05-17T01:02:48.419Z,11.63
2023-05-17T01:05:16.438Z,11.62
2023-05-17T01:07:44.200Z,11.59
2023-05-17T01:10:12.405Z,11.58
2023-05-17T01:12:49.759Z,11.57
2023-05-17T01:15:23.661Z,11.61
2023-05-17T01:17:54.931Z,11.62
2023-05-17T01:20:28.171Z,11.61
2023-05-17T01:23:11.031Z,11.65
2023-05-17T01:25:47.743Z,11.65
2023-05-17T01:28:17.863Z,11.65
2023-05-17T01:30:46.638Z,11.69
2023-05-17T01:33:14.715Z,11.71
2023-05-17T01:35:42.484Z,11.73
2023-05-17T01:38:10.319Z,11.71
2023-05-17T01:40:41.194Z,11.69
2023-05-17T01:43:14.826Z,11.73
2023-05-17T01:45:48.612Z,11.73
2023-05-17T01:48:22.966Z,11.74
2023-05-17T01:50:52.364Z,11.74
2023-05-17T01:53:23.437Z,11.73
2023-05-17T01:55:52.321Z,11.73
2023-05-17T01:58:22.908Z,11.74
2023-05-17T02:00:54.228Z,11.76
2023-05-17T02:03:22.480Z,11.74
2023-05-17T02:05:50.252Z,11.70
2023-05-17T02:08:18.083Z,11.70
2023-05-17T02:10:45.772Z,11.69
2023-05-17T02:13:13.817Z,11.64
2023-05-17T02:15:41.576Z,11.65
2023-05-17T02:18:11.804Z,11.65
2023-05-17T02:20:39.686Z,11.64
2023-05-17T02:23:07.419Z,11.67
2023-05-17T02:25:35.179Z,11.66
2023-05-17T02:28:02.940Z,11.63
2023-05-17T02:30:30.692Z,11.65
2023-05-17T02:32:58.513Z,11.64
2023-05-17T02:35:28.049Z,11.64
2023-05-17T02:37:56.142Z,11.63
2023-05-17T02:40:23.832Z,11.67
2023-05-17T02:42:51.646Z,11.68
2023-05-17T02:45:19.533Z,11.69
2023-05-17T02:47:47.311Z,11.64
2023-05-17T02:50:15.149Z,11.61
2023-05-17T02:52:44.346Z,11.62
2023-05-17T02:55:12.117Z,11.61
2023-05-17T02:57:39.883Z,11.58
2023-05-17T03:00:10.479Z,11.58
2023-05-17T03:02:38.306Z,11.54
2023-05-17T03:05:06.998Z,11.53
2023-05-17T03:07:34.835Z,11.54
2023-05-17T03:10:03.956Z,11.51
2023-05-17T03:12:31.683Z,11.50
2023-05-17T03:14:59.397Z,11.49
2023-05-17T03:17:27.206Z,11.52
2023-05-17T03:19:55.402Z,11.49
2023-05-17T03:22:23.381Z,11.49
2023-05-17T03:24:51.028Z,11.47
2023-05-17T03:27:20.194Z,11.46
2023-05-17T03:29:48.011Z,11.45
2023-05-17T03:32:15.686Z,11.46
2023-05-17T03:34:43.351Z,11.45
2023-05-17T03:37:11.083Z,11.44
2023-05-17T03:39:38.800Z,11.42
2023-05-17T03:42:07.299Z,11.40
2023-05-17T03:44:36.406Z,11.34
2023-05-17T03:47:04.109Z,11.39
2023-05-17T03:49:31.851Z,11.36
2023-05-17T03:51:59.587Z,11.34
2023-05-17T03:54:27.418Z,11.33
2023-05-17T03:56:55.158Z,11.32
2023-05-17T03:59:22.922Z,11.31
2023-05-17T04:01:52.050Z,11.27
2023-05-17T04:04:19.824Z,11.29
2023-05-17T04:06:48.080Z,11.28
2023-05-17T04:09:15.764Z,11.28
2023-05-17T04:11:43.720Z,11.28
2023-05-17T04:14:11.412Z,11.26
2023-05-17T04:16:39.149Z,11.24
2023-05-17T04:19:08.531Z,11.24
2023-05-17T04:21:36.387Z,11.23
2023-05-17T04:24:04.225Z,11.24
2023-05-17T04:26:32.229Z,11.24
2023-05-17T04:28:59.959Z,11.22
2023-05-17T04:31:27.706Z,11.21
2023-05-17T04:33:55.466Z,11.18
2023-05-17T04:36:24.636Z,11.19
2023-05-17T04:38:52.493Z,11.12
2023-05-17T04:41:20.198Z,11.09
2023-05-17T04:43:47.989Z,11.09
2023-05-17T04:46:16.005Z,11.08
2023-05-17T04:48:43.868Z,11.08
2023-05-17T04:51:11.913Z,11.05
2023-05-17T04:53:41.057Z,11.05
2023-05-17T04:56:08.932Z,10.99
2023-05-17T04:58:36.768Z,11.01
2023-05-17T05:01:04.745Z,11.04
2023-05-17T05:03:32.598Z,11.08
2023-05-17T05:06:00.398Z,11.11
2023-05-17T05:08:28.064Z,11.09
2023-05-17T05:10:57.126Z,11.05
2023-05-17T05:13:24.846Z,11.04
2023-05-17T05:15:52.686Z,11.04
2023-05-17T05:18:20.390Z,11.02
2023-05-17T05:20:49.630Z,11.03
2023-05-17T05:23:18.538Z,11.06
2023-05-17T05:25:47.399Z,11.09
2023-05-17T05:28:16.562Z,11.11
2023-05-17T05:30:44.366Z,11.10
2023-05-17T05:33:12.161Z,11.12
2023-05-17T05:35:40.192Z,11.16
2023-05-17T05:38:07.950Z,11.20
2023-05-17T05:40:35.686Z,11.22
2023-05-17T05:43:03.485Z,11.25
2023-05-17T05:45:32.578Z,11.25
2023-05-17T05:48:00.349Z,11.27
2023-05-17T05:50:28.361Z,11.25
2023-05-17T05:53:10.452Z,11.29
2023-05-17T05:55:45.599Z,11.32
2023-05-17T05:58:13.364Z,11.35
2023-05-17T06:00:42.479Z,11.35
2023-05-17T06:03:10.415Z,11.37
2023-05-17T06:05:38.666Z,11.38
2023-05-17T06:08:06.813Z,11.39
2023-05-17T06:10:34.552Z,11.40
2023-05-17T06:13:02.366Z,11.38
2023-05-17T06:15:32.877Z,11.37
2023-05-17T06:18:02.158Z,11.45
2023-05-17T06:20:30.273Z,11.45
2023-05-17T06:22:58.267Z,11.42
2023-05-17T06:25:26.185Z,11.41
2023-05-17T06:27:53.873Z,11.46
2023-05-17T06:30:21.858Z,11.47
2023-05-17T06:32:49.699Z,11.48
2023-05-17T06:35:20.117Z,11.48
2023-05-17T06:37:47.839Z,11.49
2023-05-17T06:40:17.108Z,11.54
2023-05-17T06:42:45.215Z,11.59
2023-05-17T06:45:13.274Z,11.61
2023-05-17T06:47:41.323Z,11.59
2023-05-17T06:50:10.270Z,11.61
2023-05-17T06:52:39.445Z,11.65
2023-05-17T06:55:07.827Z,11.67
2023-05-17T06:57:35.645Z,11.65
2023-05-17T07:00:06.821Z,11.68
2023-05-17T07:02:34.903Z,11.66
2023-05-17T07:05:02.831Z,11.68
2023-05-17T07:07:30.645Z,11.70
2023-05-17T07:09:59.844Z,11.73
2023-05-17T07:12:27.705Z,11.75
2023-05-17T07:14:55.573Z,11.77
2023-05-17T07:17:23.323Z,11.77
2023-05-17T07:19:51.380Z,11.82
2023-05-17T07:22:19.341Z,11.86
2023-05-17T07:24:47.648Z,11.89
2023-05-17T07:27:16.746Z,11.86
2023-05-17T07:29:47.240Z,11.85
2023-05-17T07:32:16.028Z,11.87
2023-05-17T07:34:43.866Z,11.89
2023-05-17T07:37:11.605Z,11.87
2023-05-17T07:39:39.319Z,11.90
2023-05-17T07:42:08.041Z,11.91
2023-05-17T07:44:37.228Z,11.89
2023-05-17T07:47:05.177Z,11.89
2023-05-17T07:49:35.415Z,11.90
2023-05-17T07:52:04.017Z,11.92
2023-05-17T07:54:32.421Z,11.89
2023-05-17T07:57:48.509Z,11.91
2023-05-17T08:00:19.385Z,11.95
2023-05-17T08:02:47.196Z,12.03
2023-05-17T08:05:15.074Z,12.08
2023-05-17T08:09:40.184Z,12.13
2023-05-17T08:12:07.915Z,12.21
2023-05-17T08:14:35.617Z,12.31
2023-05-17T08:17:03.495Z,12.33
2023-05-17T08:19:31.636Z,12.39
2023-05-17T08:22:00.733Z,12.42
2023-05-17T08:24:28.462Z,12.45
2023-05-17T08:26:58.625Z,12.50
2023-05-17T08:29:28.732Z,12.61
2023-05-17T08:31:56.906Z,12.70
2023-05-17T08:34:25.730Z,12.76
2023-05-17T08:36:53.853Z,12.82
2023-05-17T08:39:21.666Z,12.84
2023-05-17T08:41:49.498Z,12.86
2023-05-17T08:44:18.616Z,12.90
2023-05-17T08:46:53.875Z,12.91
2023-05-17T08:49:23.787Z,12.95
2023-05-17T08:51:52.365Z,12.96
2023-05-17T08:54:20.134Z,12.93
2023-05-17T08:56:52.333Z,12.85
2023-05-17T08:59:21.581Z,12.80
2023-05-17T09:01:51.005Z,12.79
2023-05-17T09:04:19.180Z,12.79
2023-05-17T09:06:47.101Z,12.75
2023-05-17T09:09:14.983Z,12.66
2023-05-17T09:11:42.749Z,12.63
2023-05-17T09:14:10.481Z,12.66
2023-05-17T09:16:41.275Z,12.69
2023-05-17T09:19:09.714Z,12.71
2023-05-17T09:21:37.939Z,12.75
2023-05-17T09:24:08.307Z,12.85
2023-05-17T09:26:40.591Z,12.85
2023-05-17T09:29:12.744Z,12.83
2023-05-17T09:31:42.268Z,12.87
2023-05-17T09:34:10.272Z,12.91
2023-05-17T09:36:39.509Z,12.92
2023-05-17T09:39:12.663Z,12.95
2023-05-17T09:41:45.387Z,13.01
2023-05-17T09:44:14.338Z,13.11
2023-05-17T09:46:46.282Z,13.14
2023-05-17T09:49:14.628Z,13.18
2023-05-17T09:51:43.869Z,13.21
2023-05-17T09:54:11.906Z,13.23
2023-05-17T09:56:40.154Z,13.20
2023-05-17T09:59:13.006Z,13.24
2023-05-17T10:01:42.257Z,13.25
2023-05-17T10:04:12.580Z,13.21
2023-05-17T10:09:15.023Z,13.29
2023-05-17T10:11:44.646Z,13.35
2023-05-17T10:14:14.994Z,13.42
2023-05-17T10:16:44.079Z,13.54
2023-05-17T10:19:13.618Z,13.56
2023-05-17T10:21:43.058Z,13.56
2023-05-17T10:24:11.561Z,13.57
2023-05-17T10:26:39.858Z,13.55
2023-05-17T10:29:07.789Z,13.52
2023-05-17T10:31:36.494Z,13.55
2023-05-17T10:34:05.678Z,13.60
2023-05-17T10:36:35.272Z,13.61
2023-05-17T10:39:03.330Z,13.67
2023-05-17T10:41:34.471Z,13.71
2023-05-17T10:44:03.805Z,13.74
2023-05-17T10:46:32.364Z,13.73
2023-05-17T10:49:01.907Z,13.72
2023-05-17T10:51:32.300Z,13.70
2023-05-17T10:54:09.956Z,13.71
2023-05-17T10:56:41.576Z,13.76
2023-05-17T10:59:16.897Z,13.75
2023-05-17T11:01:53.444Z,13.81
2023-05-17T11:04:22.637Z,13.83
2023-05-17T11:06:50.792Z,13.85
2023-05-17T11:09:23.707Z,13.89
2023-05-17T11:12:09.058Z,13.93
2023-05-17T11:14:53.456Z,13.97
2023-05-17T11:17:22.755Z,13.98
2023-05-17T11:19:56.596Z,14.01
2023-05-17T11:22:24.672Z,14.08
2023-05-17T11:24:54.909Z,14.11
2023-05-17T11:27:27.429Z,14.10
2023-05-17T11:29:56.550Z,14.08
2023-05-17T11:32:29.086Z,14.10
2023-05-17T11:34:56.864Z,14.12
2023-05-17T11:37:28.061Z,14.10
2023-05-17T11:40:08.787Z,14.18
2023-05-17T11:42:37.298Z,14.26
2023-05-17T11:45:06.046Z,14.29
2023-05-17T11:47:34.042Z,14.22
2023-05-17T11:50:04.524Z,14.19
2023-05-17T11:53:55.370Z,14.23
2023-05-17T11:56:35.668Z,14.26
2023-05-17T11:59:10.226Z,14.28
2023-05-17T12:01:46.099Z,14.29
2023-05-17T12:04:14.197Z,14.27
2023-05-17T12:06:42.466Z,14.38
2023-05-17T12:09:13.505Z,14.50
2023-05-17T12:11:42.451Z,14.65
2023-05-17T12:14:10.235Z,14.72
2023-05-17T12:16:38.501Z,14.72
2023-05-17T12:19:06.411Z,14.69
2023-05-17T12:24:11.990Z,14.64
2023-05-17T12:26:43.915Z,14.63
2023-05-17T12:29:12.228Z,14.68
2023-05-17T12:31:42.561Z,14.69
2023-05-17T12:34:12.745Z,14.64
2023-05-17T12:36:41.493Z,14.69
2023-05-17T12:39:10.228Z,14.68
2023-05-17T12:41:39.693Z,14.69
2023-05-17T12:46:40.044Z,14.78
2023-05-17T12:49:09.306Z,14.75
2023-05-17T12:51:42.151Z,14.73
2023-05-17T12:54:09.896Z,14.73
2023-05-17T12:56:38.990Z,14.82
2023-05-17T12:59:08.204Z,14.82
2023-05-17T13:01:36.821Z,14.94
2023-05-17T13:04:04.895Z,15.01
2023-05-17T13:06:44.837Z,15.07
2023-05-17T13:09:13.288Z,15.10
2023-05-17T13:11:43.454Z,15.07
2023-05-17T13:14:12.495Z,15.04
2023-05-17T13:16:41.040Z,15.07
2023-05-17T13:19:15.373Z,15.13
2023-05-17T13:21:43.112Z,15.22
2023-05-17T13:24:11.281Z,15.29
2023-05-17T13:26:38.998Z,15.36
2023-05-17T13:29:08.084Z,15.41
2023-05-17T13:31:35.892Z,15.39
2023-05-17T13:34:03.707Z,15.36
2023-05-17T13:38:41.363Z,15.46
2023-05-17T13:41:09.895Z,15.51
2023-05-17T13:43:37.705Z,15.51
2023-05-17T13:46:05.447Z,15.52
2023-05-17T13:48:33.530Z,15.48
2023-05-17T13:51:01.971Z,15.55
2023-05-17T13:53:30.019Z,15.67
2023-05-17T13:55:59.135Z,15.76
2023-05-17T13:58:26.898Z,15.83
2023-05-17T14:00:54.635Z,15.92
2023-05-17T14:03:22.684Z,15.95
2023-05-17T14:05:52.730Z,15.89
2023-05-17T14:08:20.607Z,15.81
2023-05-17T14:10:48.312Z,15.74
2023-05-17T14:13:17.431Z,15.75
2023-05-17T14:15:45.145Z,15.82
2023-05-17T14:18:12.879Z,15.91
2023-05-17T14:20:40.678Z,15.97
2023-05-17T14:23:08.369Z,16.01
2023-05-17T14:25:36.089Z,16.02
2023-05-17T14:28:03.823Z,16.04
2023-05-17T16:14:59.088Z,13.73
2023-05-17T16:17:28.215Z,13.90
2023-05-17T16:19:56.197Z,14.09
2023-05-17T16:22:24.007Z,14.26
2023-05-17T16:24:53.660Z,14.40
2023-05-17T16:27:21.720Z,14.46
2023-05-17T16:29:49.363Z,14.57
2023-05-17T16:32:18.673Z,14.57
2023-05-17T16:34:46.557Z,14.62
2023-05-17T16:37:14.284Z,14.63
2023-05-17T19:43:35.655Z,11.50
2023-05-17T19:46:04.002Z,11.68
2023-05-17T19:48:31.777Z,11.82
2023-05-17T19:50:59.520Z,11.92
2023-05-17T19:53:28.604Z,11.97
2023-05-17T19:56:01.041Z,12.03
2023-05-17T19:58:29.313Z,12.08
2023-05-17T20:00:58.441Z,12.12
2023-05-17T20:03:27.157Z,12.12
2023-05-17T20:05:55.133Z,12.14
2023-05-17T20:08:23.276Z,12.15
2023-05-17T20:10:51.027Z,12.16
2023-05-17T20:13:22.998Z,12.16
2023-05-17T20:15:50.709Z,12.14
2023-05-17T20:18:19.809Z,12.12
2023-05-17T20:20:47.515Z,12.10
2023-05-17T20:23:15.269Z,12.08
2023-05-17T20:25:43.113Z,12.09
2023-05-17T20:28:10.905Z,12.08
2023-05-17T20:30:38.640Z,12.06
2023-05-17T20:33:09.131Z,12.05
2023-05-17T20:35:39.601Z,12.05
2023-05-17T20:38:07.320Z,12.02
2023-05-17T20:40:36.565Z,12.00
2023-05-17T20:43:04.316Z,11.98
2023-05-17T20:45:33.754Z,11.96
2023-05-17T20:48:01.536Z,11.94
2023-05-17T20:50:30.025Z,11.91
2023-05-17T20:52:59.246Z,11.90
2023-05-17T20:55:27.029Z,11.87
2023-05-17T20:57:55.066Z,11.82
2023-05-17T21:00:23.311Z,11.81
2023-05-17T21:02:51.349Z,11.79
2023-05-17T21:05:19.353Z,11.77
2023-05-17T21:07:47.109Z,11.77
2023-05-17T21:10:17.794Z,11.76
2023-05-17T21:12:45.576Z,11.70
2023-05-17T21:15:30.875Z,11.68
2023-05-17T21:17:58.821Z,11.63
2023-05-17T21:20:26.698Z,11.60
2023-05-17T21:22:54.499Z,11.56
2023-05-17T21:25:23.936Z,11.54
2023-05-17T21:27:52.057Z,11.48
2023-05-17T21:30:20.178Z,11.45
2023-05-17T21:32:48.001Z,11.42
2023-05-17T21:35:16.092Z,11.41
2023-05-17T21:37:43.818Z,11.40
2023-05-17T21:40:12.038Z,11.40
2023-05-17T21:42:41.282Z,11.37
2023-05-17T21:45:09.716Z,11.32
2023-05-17T21:47:37.515Z,11.28
2023-05-17T21:50:05.881Z,11.24
2023-05-17T21:52:33.840Z,11.20
2023-05-17T21:55:01.596Z,11.19
2023-05-17T21:57:29.326Z,11.17
2023-05-17T21:59:58.353Z,11.14
2023-05-17T22:02:26.383Z,11.10
2023-05-17T22:04:54.730Z,11.09
2023-05-17T22:07:22.475Z,11.07
2023-05-17T22:09:50.269Z,11.06
2023-05-17T22:12:25.102Z,11.05
2023-05-17T22:14:53.534Z,11.02
2023-05-17T22:17:29.572Z,11.03
2023-05-17T22:20:04.071Z,10.98
2023-05-17T22:22:32.790Z,10.94
2023-05-17T22:25:00.628Z,10.91
2023-05-17T22:27:28.382Z,10.87
2023-05-17T22:29:56.086Z,10.81
2023-05-17T22:32:25.492Z,10.75
2023-05-17T22:34:56.071Z,10.76
2023-05-17T22:37:23.928Z,10.71
2023-05-17T22:39:51.655Z,10.67
2023-05-17T22:42:19.402Z,10.63
2023-05-17T22:44:47.276Z,10.55
2023-05-17T22:47:15.406Z,10.52
2023-05-17T22:49:44.698Z,10.52
2023-05-17T22:52:15.925Z,10.48
2023-05-17T22:54:43.635Z,10.45
2023-05-17T22:57:11.814Z,10.43
2023-05-17T22:59:39.670Z,10.39
2023-05-17T23:02:07.389Z,10.28
2023-05-17T23:04:37.765Z,10.33
2023-05-17T23:07:09.761Z,10.30
2023-05-17T23:09:40.403Z,10.27
2023-05-17T23:12:13.861Z,10.26
2023-05-17T23:14:41.648Z,10.27
2023-05-17T23:17:09.879Z,10.25
2023-05-17T23:19:37.558Z,10.25
2023-05-17T23:22:06.735Z,10.22
2023-05-17T23:24:38.359Z,10.15
2023-05-17T23:27:09.884Z,10.16
2023-05-17T23:29:37.835Z,10.13
2023-05-17T23:32:05.944Z,10.10
2023-05-17T23:34:33.779Z,10.07
2023-05-17T23:37:01.436Z,10.05
2023-05-17T23:39:30.636Z,10.01
2023-05-17T23:41:58.347Z,9.90
2023-05-17T23:44:26.795Z,9.88
2023-05-17T23:46:55.369Z,9.88
2023-05-17T23:49:23.957Z,9.86
2023-05-17T23:51:51.755Z,9.84
2023-05-17T23:54:19.987Z,9.82
2023-05-17T23:56:49.131Z,9.82
2023-05-17T23:59:16.871Z,9.75
